sensor_id;sensor_type;location;lat;lon;timestamp;P1;durP1;ratioP1;P2;durP2;ratioP2
3867;SDS011;1949;48.152;11.528;2022-08-20T00:01:02;10.17;;;6.63;;
3867;SDS011;1949;48.152;11.528;2022-08-20T00:03:31;11.83;;;6.80;;
3867;SDS011;1949;48.152;11.528;2022-08-20T00:06:04;10.07;;;5.67;;
3867;SDS011;1949;48.152;11.528;2022-08-20T00:08:45;9.17;;;5.97;;
3867;SDS011;1949;48.152;11.528;2022-08-20T00:11:16;11.00;;;6.17;;
3867;SDS011;1949;48.152;11.528;2022-08-20T00:13:46;8.23;;;5.63;;
3867;SDS011;1949;48.152;11.528;2022-08-20T00:16:14;9.10;;;5.70;;
3867;SDS011;1949;48.152;11.528;2022-08-20T00:18:42;11.70;;;6.33;;
3867;SDS011;1949;48.152;11.528;2022-08-20T00:21:10;10.70;;;6.37;;
3867;SDS011;1949;48.152;11.528;2022-08-20T00:23:39;9.17;;;6.40;;
3867;SDS011;1949;48.152;11.528;2022-08-20T00:26:07;8.67;;;6.10;;
3867;SDS011;1949;48.152;11.528;2022-08-20T00:28:34;10.83;;;6.17;;
3867;SDS011;1949;48.152;11.528;2022-08-20T00:31:02;9.00;;;6.40;;
3867;SDS011;1949;48.152;11.528;2022-08-20T00:33:32;8.87;;;6.27;;
3867;SDS011;1949;48.152;11.528;2022-08-20T00:35:58;10.97;;;6.63;;
3867;SDS011;1949;48.152;11.528;2022-08-20T00:38:37;11.37;;;7.50;;
3867;SDS011;1949;48.152;11.528;2022-08-20T00:41:06;12.93;;;7.10;;
3867;SDS011;1949;48.152;11.528;2022-08-20T00:43:42;13.13;;;7.33;;
3867;SDS011;1949;48.152;11.528;2022-08-20T00:46:23;12.20;;;7.60;;
3867;SDS011;1949;48.152;11.528;2022-08-20T00:49:00;14.13;;;8.10;;
3867;SDS011;1949;48.152;11.528;2022-08-20T00:59:51;12.07;;;7.70;;
3867;SDS011;1949;48.152;11.528;2022-08-20T01:02:18;15.00;;;8.43;;
3867;SDS011;1949;48.152;11.528;2022-08-20T01:04:48;13.87;;;9.00;;
3867;SDS011;1949;48.152;11.528;2022-08-20T01:07:16;15.80;;;8.53;;
3867;SDS011;1949;48.152;11.528;2022-08-20T01:09:46;15.90;;;9.23;;
3867;SDS011;1949;48.152;11.528;2022-08-20T01:12:16;14.00;;;8.97;;
3867;SDS011;1949;48.152;11.528;2022-08-20T01:17:14;17.60;;;9.33;;
3867;SDS011;1949;48.152;11.528;2022-08-20T01:25:59;19.37;;;10.37;;
3867;SDS011;1949;48.152;11.528;2022-08-20T01:28:46;20.50;;;9.60;;
3867;SDS011;1949;48.152;11.528;2022-08-20T01:31:24;16.63;;;8.30;;
3867;SDS011;1949;48.152;11.528;2022-08-20T01:33:53;16.77;;;8.23;;
3867;SDS011;1949;48.152;11.528;2022-08-20T01:36:29;14.83;;;8.53;;
3867;SDS011;1949;48.152;11.528;2022-08-20T01:39:02;13.87;;;8.43;;
3867;SDS011;1949;48.152;11.528;2022-08-20T01:44:28;16.40;;;9.17;;
3867;SDS011;1949;48.152;11.528;2022-08-20T01:46:55;15.43;;;9.60;;
3867;SDS011;1949;48.152;11.528;2022-08-20T01:49:32;15.37;;;8.30;;
3867;SDS011;1949;48.152;11.528;2022-08-20T01:54:32;16.77;;;9.70;;
3867;SDS011;1949;48.152;11.528;2022-08-20T01:57:05;15.60;;;9.23;;
3867;SDS011;1949;48.152;11.528;2022-08-20T01:59:36;15.27;;;9.50;;
3867;SDS011;1949;48.152;11.528;2022-08-20T02:02:02;15.53;;;9.40;;
3867;SDS011;1949;48.152;11.528;2022-08-20T02:04:31;18.43;;;10.43;;
3867;SDS011;1949;48.152;11.528;2022-08-20T02:12:09;20.27;;;9.37;;
3867;SDS011;1949;48.152;11.528;2022-08-20T02:14:40;26.73;;;9.53;;
3867;SDS011;1949;48.152;11.528;2022-08-20T02:17:13;21.93;;;9.73;;
3867;SDS011;1949;48.152;11.528;2022-08-20T02:19:46;17.73;;;10.20;;
3867;SDS011;1949;48.152;11.528;2022-08-20T02:25:20;14.80;;;9.53;;
3867;SDS011;1949;48.152;11.528;2022-08-20T02:27:49;21.43;;;10.00;;
3867;SDS011;1949;48.152;11.528;2022-08-20T02:30:23;17.30;;;9.57;;
3867;SDS011;1949;48.152;11.528;2022-08-20T02:32:52;16.00;;;9.23;;
3867;SDS011;1949;48.152;11.528;2022-08-20T02:35:18;17.40;;;9.73;;
3867;SDS011;1949;48.152;11.528;2022-08-20T02:37:44;19.40;;;10.30;;
3867;SDS011;1949;48.152;11.528;2022-08-20T02:40:13;20.47;;;11.27;;
3867;SDS011;1949;48.152;11.528;2022-08-20T02:42:41;18.37;;;9.50;;
3867;SDS011;1949;48.152;11.528;2022-08-20T02:45:08;18.60;;;10.43;;
3867;SDS011;1949;48.152;11.528;2022-08-20T02:47:41;16.17;;;8.97;;
3867;SDS011;1949;48.152;11.528;2022-08-20T02:50:17;16.67;;;9.30;;
3867;SDS011;1949;48.152;11.528;2022-08-20T02:52:47;14.73;;;9.40;;
3867;SDS011;1949;48.152;11.528;2022-08-20T02:55:14;15.57;;;10.33;;
3867;SDS011;1949;48.152;11.528;2022-08-20T02:57:41;18.17;;;9.80;;
3867;SDS011;1949;48.152;11.528;2022-08-20T03:00:09;18.87;;;10.90;;
3867;SDS011;1949;48.152;11.528;2022-08-20T03:02:40;17.83;;;10.07;;
3867;SDS011;1949;48.152;11.528;2022-08-20T03:05:07;17.97;;;9.43;;
3867;SDS011;1949;48.152;11.528;2022-08-20T03:10:17;17.77;;;9.60;;
3867;SDS011;1949;48.152;11.528;2022-08-20T03:12:47;23.93;;;10.93;;
3867;SDS011;1949;48.152;11.528;2022-08-20T03:15:15;17.30;;;9.50;;
3867;SDS011;1949;48.152;11.528;2022-08-20T03:17:41;18.87;;;10.47;;
3867;SDS011;1949;48.152;11.528;2022-08-20T03:20:07;14.60;;;9.67;;
3867;SDS011;1949;48.152;11.528;2022-08-20T03:22:35;17.80;;;9.50;;
3867;SDS011;1949;48.152;11.528;2022-08-20T03:25:07;18.90;;;10.37;;
3867;SDS011;1949;48.152;11.528;2022-08-20T03:27:36;15.73;;;9.20;;
3867;SDS011;1949;48.152;11.528;2022-08-20T03:30:05;16.30;;;9.67;;
3867;SDS011;1949;48.152;11.528;2022-08-20T03:32:34;19.47;;;10.80;;
3867;SDS011;1949;48.152;11.528;2022-08-20T03:35:02;33.83;;;13.87;;
3867;SDS011;1949;48.152;11.528;2022-08-20T03:37:31;21.93;;;13.27;;
3867;SDS011;1949;48.152;11.528;2022-08-20T03:39:58;19.27;;;10.37;;
3867;SDS011;1949;48.152;11.528;2022-08-20T03:42:24;19.53;;;10.63;;
3867;SDS011;1949;48.152;11.528;2022-08-20T03:44:52;17.63;;;10.30;;
3867;SDS011;1949;48.152;11.528;2022-08-20T03:47:19;18.90;;;10.73;;
3867;SDS011;1949;48.152;11.528;2022-08-20T03:49:45;19.37;;;11.20;;
3867;SDS011;1949;48.152;11.528;2022-08-20T03:52:11;22.33;;;11.63;;
3867;SDS011;1949;48.152;11.528;2022-08-20T03:54:38;22.10;;;13.20;;
3867;SDS011;1949;48.152;11.528;2022-08-20T03:57:05;18.80;;;10.17;;
3867;SDS011;1949;48.152;11.528;2022-08-20T03:59:37;28.20;;;10.90;;
3867;SDS011;1949;48.152;11.528;2022-08-20T04:02:02;18.00;;;10.90;;
3867;SDS011;1949;48.152;11.528;2022-08-20T04:04:30;22.97;;;11.70;;
3867;SDS011;1949;48.152;11.528;2022-08-20T04:06:58;17.87;;;10.47;;
3867;SDS011;1949;48.152;11.528;2022-08-20T04:11:55;24.57;;;14.63;;
3867;SDS011;1949;48.152;11.528;2022-08-20T04:14:26;21.20;;;12.00;;
3867;SDS011;1949;48.152;11.528;2022-08-20T04:16:53;27.27;;;10.83;;
3867;SDS011;1949;48.152;11.528;2022-08-20T04:19:21;16.10;;;9.67;;
3867;SDS011;1949;48.152;11.528;2022-08-20T04:21:47;19.57;;;11.03;;
3867;SDS011;1949;48.152;11.528;2022-08-20T04:24:15;18.93;;;10.50;;
3867;SDS011;1949;48.152;11.528;2022-08-20T04:26:41;22.40;;;12.53;;
3867;SDS011;1949;48.152;11.528;2022-08-20T04:29:06;29.13;;;15.67;;
3867;SDS011;1949;48.152;11.528;2022-08-20T04:31:34;24.53;;;14.63;;
3867;SDS011;1949;48.152;11.528;2022-08-20T04:34:02;17.80;;;10.20;;
3867;SDS011;1949;48.152;11.528;2022-08-20T04:36:31;23.17;;;12.33;;
3867;SDS011;1949;48.152;11.528;2022-08-20T04:38:59;18.63;;;11.27;;
3867;SDS011;1949;48.152;11.528;2022-08-20T04:41:26;21.30;;;11.80;;
3867;SDS011;1949;48.152;11.528;2022-08-20T04:43:52;25.07;;;13.67;;
3867;SDS011;1949;48.152;11.528;2022-08-20T04:46:21;25.97;;;14.77;;
3867;SDS011;1949;48.152;11.528;2022-08-20T04:48:50;21.63;;;10.67;;
3867;SDS011;1949;48.152;11.528;2022-08-20T04:51:16;17.40;;;10.20;;
3867;SDS011;1949;48.152;11.528;2022-08-20T04:53:43;18.43;;;9.80;;
3867;SDS011;1949;48.152;11.528;2022-08-20T04:56:09;16.10;;;9.30;;
3867;SDS011;1949;48.152;11.528;2022-08-20T04:58:38;16.43;;;10.17;;
3867;SDS011;1949;48.152;11.528;2022-08-20T05:01:07;19.33;;;11.10;;
3867;SDS011;1949;48.152;11.528;2022-08-20T05:03:38;15.47;;;9.23;;
3867;SDS011;1949;48.152;11.528;2022-08-20T05:06:05;15.30;;;8.77;;
3867;SDS011;1949;48.152;11.528;2022-08-20T05:11:04;20.30;;;9.03;;
3867;SDS011;1949;48.152;11.528;2022-08-20T05:13:33;16.13;;;10.07;;
3867;SDS011;1949;48.152;11.528;2022-08-20T05:15:59;18.23;;;9.83;;
3867;SDS011;1949;48.152;11.528;2022-08-20T05:18:26;18.60;;;9.30;;
3867;SDS011;1949;48.152;11.528;2022-08-20T05:20:59;14.70;;;8.80;;
3867;SDS011;1949;48.152;11.528;2022-08-20T05:23:35;14.03;;;9.27;;
3867;SDS011;1949;48.152;11.528;2022-08-20T05:26:05;18.27;;;9.20;;
3867;SDS011;1949;48.152;11.528;2022-08-20T05:28:32;16.53;;;10.20;;
3867;SDS011;1949;48.152;11.528;2022-08-20T05:30:59;17.17;;;9.03;;
3867;SDS011;1949;48.152;11.528;2022-08-20T05:33:27;13.80;;;9.17;;
3867;SDS011;1949;48.152;11.528;2022-08-20T05:35:55;20.10;;;9.77;;
3867;SDS011;1949;48.152;11.528;2022-08-20T05:40:53;14.10;;;9.50;;
3867;SDS011;1949;48.152;11.528;2022-08-20T05:43:20;14.40;;;8.47;;
3867;SDS011;1949;48.152;11.528;2022-08-20T05:48:20;16.00;;;9.30;;
3867;SDS011;1949;48.152;11.528;2022-08-20T05:50:49;14.37;;;8.73;;
3867;SDS011;1949;48.152;11.528;2022-08-20T05:53:16;15.13;;;8.60;;
3867;SDS011;1949;48.152;11.528;2022-08-20T05:55:43;16.20;;;9.13;;
3867;SDS011;1949;48.152;11.528;2022-08-20T05:58:14;18.73;;;8.90;;
3867;SDS011;1949;48.152;11.528;2022-08-20T06:00:45;15.10;;;9.40;;
3867;SDS011;1949;48.152;11.528;2022-08-20T06:03:12;18.73;;;9.70;;
3867;SDS011;1949;48.152;11.528;2022-08-20T06:05:56;18.83;;;9.00;;
3867;SDS011;1949;48.152;11.528;2022-08-20T06:08:22;14.17;;;8.50;;
3867;SDS011;1949;48.152;11.528;2022-08-20T06:13:17;20.00;;;8.90;;
3867;SDS011;1949;48.152;11.528;2022-08-20T06:15:43;14.23;;;8.20;;
3867;SDS011;1949;48.152;11.528;2022-08-20T06:18:09;22.93;;;9.33;;
3867;SDS011;1949;48.152;11.528;2022-08-20T06:20:37;15.13;;;8.67;;
3867;SDS011;1949;48.152;11.528;2022-08-20T06:23:04;12.13;;;7.77;;
3867;SDS011;1949;48.152;11.528;2022-08-20T06:25:33;17.37;;;9.70;;
3867;SDS011;1949;48.152;11.528;2022-08-20T06:27:59;16.83;;;9.23;;
3867;SDS011;1949;48.152;11.528;2022-08-20T06:30:26;19.47;;;11.07;;
3867;SDS011;1949;48.152;11.528;2022-08-20T06:32:52;15.30;;;9.40;;
3867;SDS011;1949;48.152;11.528;2022-08-20T06:35:19;11.07;;;8.03;;
3867;SDS011;1949;48.152;11.528;2022-08-20T06:37:45;14.30;;;8.47;;
3867;SDS011;1949;48.152;11.528;2022-08-20T06:40:15;11.03;;;7.50;;
3867;SDS011;1949;48.152;11.528;2022-08-20T06:42:44;14.23;;;7.47;;
3867;SDS011;1949;48.152;11.528;2022-08-20T06:45:11;16.10;;;8.03;;
3867;SDS011;1949;48.152;11.528;2022-08-20T06:47:39;11.60;;;7.93;;
3867;SDS011;1949;48.152;11.528;2022-08-20T06:50:10;11.30;;;7.50;;
3867;SDS011;1949;48.152;11.528;2022-08-20T06:52:38;25.70;;;13.17;;
3867;SDS011;1949;48.152;11.528;2022-08-20T06:55:05;14.47;;;9.30;;
3867;SDS011;1949;48.152;11.528;2022-08-20T06:57:32;14.57;;;8.73;;
3867;SDS011;1949;48.152;11.528;2022-08-20T06:59:59;14.10;;;8.93;;
3867;SDS011;1949;48.152;11.528;2022-08-20T07:02:24;12.80;;;8.70;;
3867;SDS011;1949;48.152;11.528;2022-08-20T07:04:50;16.20;;;9.33;;
3867;SDS011;1949;48.152;11.528;2022-08-20T07:07:17;20.80;;;12.43;;
3867;SDS011;1949;48.152;11.528;2022-08-20T07:09:43;19.83;;;11.10;;
3867;SDS011;1949;48.152;11.528;2022-08-20T07:12:11;25.27;;;12.37;;
3867;SDS011;1949;48.152;11.528;2022-08-20T07:14:37;24.60;;;14.53;;
3867;SDS011;1949;48.152;11.528;2022-08-20T07:17:03;13.23;;;6.87;;
3867;SDS011;1949;48.152;11.528;2022-08-20T07:19:31;20.93;;;11.40;;
3867;SDS011;1949;48.152;11.528;2022-08-20T07:21:57;10.53;;;6.83;;
3867;SDS011;1949;48.152;11.528;2022-08-20T07:24:24;26.33;;;11.60;;
3867;SDS011;1949;48.152;11.528;2022-08-20T07:26:50;14.90;;;9.07;;
3867;SDS011;1949;48.152;11.528;2022-08-20T07:29:17;11.10;;;7.00;;
3867;SDS011;1949;48.152;11.528;2022-08-20T07:31:43;15.93;;;9.17;;
3867;SDS011;1949;48.152;11.528;2022-08-20T07:34:27;14.70;;;7.60;;
3867;SDS011;1949;48.152;11.528;2022-08-20T07:37:00;29.90;;;16.60;;
3867;SDS011;1949;48.152;11.528;2022-08-20T07:39:26;15.73;;;8.47;;
3867;SDS011;1949;48.152;11.528;2022-08-20T07:41:52;17.73;;;9.07;;
3867;SDS011;1949;48.152;11.528;2022-08-20T07:44:27;17.47;;;10.00;;
3867;SDS011;1949;48.152;11.528;2022-08-20T07:46:54;20.63;;;10.77;;
3867;SDS011;1949;48.152;11.528;2022-08-20T07:49:24;12.07;;;7.87;;
3867;SDS011;1949;48.152;11.528;2022-08-20T07:51:49;16.80;;;7.43;;
3867;SDS011;1949;48.152;11.528;2022-08-20T07:54:15;12.33;;;7.80;;
3867;SDS011;1949;48.152;11.528;2022-08-20T07:56:41;12.73;;;6.57;;
3867;SDS011;1949;48.152;11.528;2022-08-20T07:59:06;10.33;;;6.67;;
3867;SDS011;1949;48.152;11.528;2022-08-20T08:01:32;8.70;;;6.10;;
3867;SDS011;1949;48.152;11.528;2022-08-20T08:04:01;10.43;;;6.53;;
3867;SDS011;1949;48.152;11.528;2022-08-20T08:06:27;10.20;;;6.27;;
3867;SDS011;1949;48.152;11.528;2022-08-20T08:08:54;12.37;;;7.20;;
3867;SDS011;1949;48.152;11.528;2022-08-20T08:11:20;12.63;;;6.93;;
3867;SDS011;1949;48.152;11.528;2022-08-20T08:13:46;9.93;;;6.00;;
3867;SDS011;1949;48.152;11.528;2022-08-20T08:16:13;10.93;;;5.90;;
3867;SDS011;1949;48.152;11.528;2022-08-20T08:18:45;12.30;;;7.27;;
3867;SDS011;1949;48.152;11.528;2022-08-20T08:21:14;11.23;;;7.23;;
3867;SDS011;1949;48.152;11.528;2022-08-20T08:23:43;12.70;;;7.27;;
3867;SDS011;1949;48.152;11.528;2022-08-20T08:26:10;9.77;;;6.40;;
3867;SDS011;1949;48.152;11.528;2022-08-20T08:28:38;11.17;;;5.77;;
3867;SDS011;1949;48.152;11.528;2022-08-20T08:31:05;13.60;;;5.77;;
3867;SDS011;1949;48.152;11.528;2022-08-20T08:33:34;9.60;;;6.93;;
3867;SDS011;1949;48.152;11.528;2022-08-20T08:36:02;10.60;;;7.20;;
3867;SDS011;1949;48.152;11.528;2022-08-20T08:38:31;7.87;;;5.60;;
3867;SDS011;1949;48.152;11.528;2022-08-20T08:41:23;18.90;;;6.27;;
3867;SDS011;1949;48.152;11.528;2022-08-20T08:43:48;13.50;;;5.97;;
3867;SDS011;1949;48.152;11.528;2022-08-20T08:46:18;9.90;;;5.73;;
3867;SDS011;1949;48.152;11.528;2022-08-20T08:48:48;7.80;;;5.30;;
3867;SDS011;1949;48.152;11.528;2022-08-20T08:51:20;10.20;;;6.10;;
3867;SDS011;1949;48.152;11.528;2022-08-20T08:53:55;8.70;;;6.20;;
3867;SDS011;1949;48.152;11.528;2022-08-20T08:56:26;9.13;;;5.57;;
3867;SDS011;1949;48.152;11.528;2022-08-20T08:58:59;29.73;;;11.90;;
3867;SDS011;1949;48.152;11.528;2022-08-20T09:01:39;43.40;;;10.43;;
3867;SDS011;1949;48.152;11.528;2022-08-20T09:04:07;13.37;;;6.40;;
3867;SDS011;1949;48.152;11.528;2022-08-20T09:06:35;16.63;;;6.17;;
3867;SDS011;1949;48.152;11.528;2022-08-20T09:09:04;49.93;;;22.73;;
3867;SDS011;1949;48.152;11.528;2022-08-20T09:11:47;28.80;;;15.20;;
3867;SDS011;1949;48.152;11.528;2022-08-20T09:14:17;13.10;;;7.40;;
3867;SDS011;1949;48.152;11.528;2022-08-20T09:16:46;18.00;;;7.20;;
3867;SDS011;1949;48.152;11.528;2022-08-20T09:21:41;17.30;;;6.47;;
3867;SDS011;1949;48.152;11.528;2022-08-20T09:24:08;22.67;;;6.77;;
3867;SDS011;1949;48.152;11.528;2022-08-20T09:26:34;10.00;;;6.97;;
3867;SDS011;1949;48.152;11.528;2022-08-20T09:29:01;8.30;;;6.50;;
3867;SDS011;1949;48.152;11.528;2022-08-20T09:31:27;13.73;;;6.67;;
3867;SDS011;1949;48.152;11.528;2022-08-20T09:33:52;9.90;;;6.23;;
3867;SDS011;1949;48.152;11.528;2022-08-20T09:36:18;11.20;;;6.87;;
3867;SDS011;1949;48.152;11.528;2022-08-20T09:38:44;9.27;;;6.40;;
3867;SDS011;1949;48.152;11.528;2022-08-20T09:41:10;10.93;;;7.20;;
3867;SDS011;1949;48.152;11.528;2022-08-20T09:43:36;13.20;;;6.73;;
3867;SDS011;1949;48.152;11.528;2022-08-20T09:46:01;16.30;;;7.40;;
3867;SDS011;1949;48.152;11.528;2022-08-20T09:48:27;20.03;;;12.23;;
3867;SDS011;1949;48.152;11.528;2022-08-20T09:50:53;14.23;;;7.80;;
3867;SDS011;1949;48.152;11.528;2022-08-20T09:53:19;15.67;;;9.47;;
3867;SDS011;1949;48.152;11.528;2022-08-20T09:55:50;11.80;;;6.97;;
3867;SDS011;1949;48.152;11.528;2022-08-20T09:58:20;18.30;;;8.60;;
3867;SDS011;1949;48.152;11.528;2022-08-20T10:00:48;16.33;;;10.23;;
3867;SDS011;1949;48.152;11.528;2022-08-20T10:03:14;16.03;;;9.53;;
3867;SDS011;1949;48.152;11.528;2022-08-20T10:05:40;14.60;;;9.83;;
3867;SDS011;1949;48.152;11.528;2022-08-20T10:08:07;12.33;;;7.50;;
3867;SDS011;1949;48.152;11.528;2022-08-20T10:10:35;12.10;;;8.00;;
3867;SDS011;1949;48.152;11.528;2022-08-20T10:13:00;14.17;;;8.77;;
3867;SDS011;1949;48.152;11.528;2022-08-20T10:15:27;12.13;;;7.87;;
3867;SDS011;1949;48.152;11.528;2022-08-20T10:17:53;11.70;;;7.87;;
3867;SDS011;1949;48.152;11.528;2022-08-20T10:20:21;13.23;;;8.73;;
3867;SDS011;1949;48.152;11.528;2022-08-20T10:22:47;15.30;;;8.20;;
3867;SDS011;1949;48.152;11.528;2022-08-20T10:25:13;12.57;;;7.30;;
3867;SDS011;1949;48.152;11.528;2022-08-20T10:27:40;17.50;;;10.10;;
3867;SDS011;1949;48.152;11.528;2022-08-20T10:30:06;12.87;;;8.40;;
3867;SDS011;1949;48.152;11.528;2022-08-20T10:32:33;12.90;;;8.67;;
3867;SDS011;1949;48.152;11.528;2022-08-20T10:34:58;15.30;;;8.53;;
3867;SDS011;1949;48.152;11.528;2022-08-20T10:37:24;19.43;;;9.13;;
3867;SDS011;1949;48.152;11.528;2022-08-20T10:39:51;12.63;;;9.10;;
3867;SDS011;1949;48.152;11.528;2022-08-20T10:42:17;17.77;;;10.90;;
3867;SDS011;1949;48.152;11.528;2022-08-20T10:44:43;11.60;;;7.93;;
3867;SDS011;1949;48.152;11.528;2022-08-20T10:47:13;11.70;;;7.93;;
3867;SDS011;1949;48.152;11.528;2022-08-20T10:49:40;20.43;;;11.90;;
3867;SDS011;1949;48.152;11.528;2022-08-20T10:52:06;23.47;;;15.97;;
3867;SDS011;1949;48.152;11.528;2022-08-20T10:54:32;30.33;;;18.60;;
3867;SDS011;1949;48.152;11.528;2022-08-20T10:57:01;35.83;;;20.60;;
3867;SDS011;1949;48.152;11.528;2022-08-20T10:59:27;35.40;;;21.50;;
3867;SDS011;1949;48.152;11.528;2022-08-20T11:01:53;33.43;;;20.47;;
3867;SDS011;1949;48.152;11.528;2022-08-20T11:04:19;28.43;;;15.87;;
3867;SDS011;1949;48.152;11.528;2022-08-20T11:06:44;19.47;;;11.60;;
3867;SDS011;1949;48.152;11.528;2022-08-20T11:09:10;22.20;;;13.20;;
3867;SDS011;1949;48.152;11.528;2022-08-20T11:11:36;23.97;;;14.53;;
3867;SDS011;1949;48.152;11.528;2022-08-20T11:14:01;24.17;;;15.20;;
3867;SDS011;1949;48.152;11.528;2022-08-20T11:16:29;22.43;;;13.20;;
3867;SDS011;1949;48.152;11.528;2022-08-20T11:18:55;18.57;;;11.57;;
3867;SDS011;1949;48.152;11.528;2022-08-20T11:21:21;25.10;;;14.07;;
3867;SDS011;1949;48.152;11.528;2022-08-20T11:23:46;24.13;;;15.00;;
3867;SDS011;1949;48.152;11.528;2022-08-20T11:26:18;24.73;;;15.20;;
3867;SDS011;1949;48.152;11.528;2022-08-20T11:28:49;26.47;;;17.23;;
3867;SDS011;1949;48.152;11.528;2022-08-20T11:31:15;27.63;;;16.57;;
3867;SDS011;1949;48.152;11.528;2022-08-20T11:33:40;26.20;;;15.00;;
3867;SDS011;1949;48.152;11.528;2022-08-20T11:36:06;24.47;;;13.97;;
3867;SDS011;1949;48.152;11.528;2022-08-20T11:38:32;16.80;;;12.00;;
3867;SDS011;1949;48.152;11.528;2022-08-20T11:40:58;20.80;;;10.90;;
3867;SDS011;1949;48.152;11.528;2022-08-20T11:43:23;21.80;;;12.60;;
3867;SDS011;1949;48.152;11.528;2022-08-20T11:45:52;23.73;;;12.97;;
3867;SDS011;1949;48.152;11.528;2022-08-20T11:48:19;31.33;;;16.40;;
3867;SDS011;1949;48.152;11.528;2022-08-20T11:50:46;50.30;;;26.93;;
3867;SDS011;1949;48.152;11.528;2022-08-20T11:53:12;39.27;;;23.10;;
3867;SDS011;1949;48.152;11.528;2022-08-20T11:55:38;43.90;;;23.57;;
3867;SDS011;1949;48.152;11.528;2022-08-20T11:58:04;29.27;;;17.97;;
3867;SDS011;1949;48.152;11.528;2022-08-20T12:00:32;22.87;;;14.30;;
3867;SDS011;1949;48.152;11.528;2022-08-20T12:03:00;25.03;;;14.03;;
3867;SDS011;1949;48.152;11.528;2022-08-20T12:05:28;24.87;;;14.60;;
3867;SDS011;1949;48.152;11.528;2022-08-20T12:07:54;24.67;;;14.67;;
3867;SDS011;1949;48.152;11.528;2022-08-20T12:10:20;17.63;;;9.40;;
3867;SDS011;1949;48.152;11.528;2022-08-20T12:12:48;7.70;;;4.80;;
3867;SDS011;1949;48.152;11.528;2022-08-20T12:15:14;8.10;;;4.70;;
3867;SDS011;1949;48.152;11.528;2022-08-20T12:17:39;9.60;;;5.27;;
3867;SDS011;1949;48.152;11.528;2022-08-20T12:20:07;7.67;;;5.03;;
3867;SDS011;1949;48.152;11.528;2022-08-20T12:22:35;8.30;;;5.33;;
3867;SDS011;1949;48.152;11.528;2022-08-20T12:25:01;7.97;;;5.87;;
3867;SDS011;1949;48.152;11.528;2022-08-20T12:27:28;9.30;;;5.10;;
3867;SDS011;1949;48.152;11.528;2022-08-20T12:29:58;8.37;;;5.57;;
3867;SDS011;1949;48.152;11.528;2022-08-20T12:32:27;10.60;;;7.23;;
3867;SDS011;1949;48.152;11.528;2022-08-20T12:34:54;9.77;;;5.87;;
3867;SDS011;1949;48.152;11.528;2022-08-20T12:37:22;9.10;;;5.80;;
3867;SDS011;1949;48.152;11.528;2022-08-20T12:39:51;6.70;;;5.40;;
3867;SDS011;1949;48.152;11.528;2022-08-20T12:42:19;11.83;;;6.00;;
3867;SDS011;1949;48.152;11.528;2022-08-20T12:44:46;12.17;;;7.80;;
3867;SDS011;1949;48.152;11.528;2022-08-20T12:47:16;10.90;;;6.60;;
3867;SDS011;1949;48.152;11.528;2022-08-20T12:49:46;11.90;;;7.33;;
3867;SDS011;1949;48.152;11.528;2022-08-20T12:52:25;9.80;;;6.07;;
3867;SDS011;1949;48.152;11.528;2022-08-20T12:54:52;12.63;;;6.40;;
3867;SDS011;1949;48.152;11.528;2022-08-20T12:57:39;11.60;;;6.87;;
3867;SDS011;1949;48.152;11.528;2022-08-20T13:00:17;14.13;;;7.87;;
3867;SDS011;1949;48.152;11.528;2022-08-20T13:02:50;9.53;;;6.67;;
3867;SDS011;1949;48.152;11.528;2022-08-20T13:05:17;12.93;;;6.43;;
3867;SDS011;1949;48.152;11.528;2022-08-20T13:07:43;31.13;;;15.40;;
3867;SDS011;1949;48.152;11.528;2022-08-20T13:10:12;9.20;;;6.30;;
3867;SDS011;1949;48.152;11.528;2022-08-20T13:12:45;12.33;;;7.23;;
3867;SDS011;1949;48.152;11.528;2022-08-20T13:15:12;19.43;;;10.97;;
3867;SDS011;1949;48.152;11.528;2022-08-20T13:17:37;12.90;;;8.10;;
3867;SDS011;1949;48.152;11.528;2022-08-20T13:20:04;11.67;;;6.37;;
3867;SDS011;1949;48.152;11.528;2022-08-20T13:22:32;10.47;;;6.60;;
3867;SDS011;1949;48.152;11.528;2022-08-20T13:24:58;15.57;;;8.90;;
3867;SDS011;1949;48.152;11.528;2022-08-20T13:27:23;14.83;;;7.73;;
3867;SDS011;1949;48.152;11.528;2022-08-20T13:29:52;12.10;;;7.73;;
3867;SDS011;1949;48.152;11.528;2022-08-20T13:32:19;18.23;;;10.67;;
3867;SDS011;1949;48.152;11.528;2022-08-20T13:34:47;13.17;;;8.30;;
3867;SDS011;1949;48.152;11.528;2022-08-20T13:37:23;11.93;;;7.23;;
3867;SDS011;1949;48.152;11.528;2022-08-20T13:39:51;10.53;;;6.07;;
3867;SDS011;1949;48.152;11.528;2022-08-20T13:42:17;13.03;;;7.80;;
3867;SDS011;1949;48.152;11.528;2022-08-20T13:44:44;54.80;;;29.90;;
3867;SDS011;1949;48.152;11.528;2022-08-20T13:47:21;24.87;;;10.60;;
3867;SDS011;1949;48.152;11.528;2022-08-20T13:49:58;10.37;;;6.47;;
3867;SDS011;1949;48.152;11.528;2022-08-20T13:52:26;10.70;;;5.77;;
3867;SDS011;1949;48.152;11.528;2022-08-20T13:54:52;8.27;;;5.90;;
3867;SDS011;1949;48.152;11.528;2022-08-20T13:57:18;10.13;;;6.07;;
3867;SDS011;1949;48.152;11.528;2022-08-20T13:59:46;10.03;;;7.20;;
3867;SDS011;1949;48.152;11.528;2022-08-20T14:02:13;11.40;;;6.57;;
3867;SDS011;1949;48.152;11.528;2022-08-20T14:04:42;12.70;;;8.07;;
3867;SDS011;1949;48.152;11.528;2022-08-20T14:07:18;5.90;;;4.03;;
3867;SDS011;1949;48.152;11.528;2022-08-20T14:09:47;1.83;;;1.50;;
3867;SDS011;1949;48.152;11.528;2022-08-20T14:12:18;2.00;;;1.70;;
3867;SDS011;1949;48.152;11.528;2022-08-20T14:14:44;1.27;;;1.13;;
3867;SDS011;1949;48.152;11.528;2022-08-20T14:17:21;1.60;;;1.50;;
3867;SDS011;1949;48.152;11.528;2022-08-20T14:20:03;2.20;;;1.67;;
3867;SDS011;1949;48.152;11.528;2022-08-20T14:22:36;1.83;;;1.43;;
3867;SDS011;1949;48.152;11.528;2022-08-20T14:25:03;3.90;;;1.70;;
3867;SDS011;1949;48.152;11.528;2022-08-20T14:27:30;5.10;;;2.30;;
3867;SDS011;1949;48.152;11.528;2022-08-20T14:29:58;2.27;;;2.07;;
3867;SDS011;1949;48.152;11.528;2022-08-20T14:32:24;2.43;;;1.80;;
3867;SDS011;1949;48.152;11.528;2022-08-20T14:34:51;3.07;;;1.87;;
3867;SDS011;1949;48.152;11.528;2022-08-20T14:37:18;1.50;;;1.40;;
3867;SDS011;1949;48.152;11.528;2022-08-20T14:39:49;6.40;;;2.20;;
3867;SDS011;1949;48.152;11.528;2022-08-20T14:42:20;5.23;;;2.37;;
3867;SDS011;1949;48.152;11.528;2022-08-20T14:44:48;7.50;;;3.30;;
3867;SDS011;1949;48.152;11.528;2022-08-20T14:47:18;15.77;;;8.80;;
3867;SDS011;1949;48.152;11.528;2022-08-20T14:49:45;3.00;;;1.57;;
3867;SDS011;1949;48.152;11.528;2022-08-20T14:52:12;3.10;;;1.97;;
3867;SDS011;1949;48.152;11.528;2022-08-20T14:54:38;4.30;;;3.00;;
3867;SDS011;1949;48.152;11.528;2022-08-20T14:57:06;3.40;;;2.40;;
3867;SDS011;1949;48.152;11.528;2022-08-20T14:59:33;1.93;;;1.77;;
3867;SDS011;1949;48.152;11.528;2022-08-20T15:02:01;5.07;;;2.30;;
3867;SDS011;1949;48.152;11.528;2022-08-20T15:04:28;5.77;;;2.60;;
3867;SDS011;1949;48.152;11.528;2022-08-20T15:06:55;1.93;;;1.77;;
3867;SDS011;1949;48.152;11.528;2022-08-20T15:09:20;2.20;;;2.00;;
3867;SDS011;1949;48.152;11.528;2022-08-20T15:11:46;11.80;;;7.00;;
3867;SDS011;1949;48.152;11.528;2022-08-20T15:14:12;3.80;;;3.20;;
3867;SDS011;1949;48.152;11.528;2022-08-20T15:16:38;20.03;;;11.90;;
3867;SDS011;1949;48.152;11.528;2022-08-20T15:19:04;8.10;;;3.63;;
3867;SDS011;1949;48.152;11.528;2022-08-20T15:21:30;2.53;;;1.80;;
3867;SDS011;1949;48.152;11.528;2022-08-20T15:23:56;5.80;;;2.20;;
3867;SDS011;1949;48.152;11.528;2022-08-20T15:26:21;7.63;;;1.50;;
3867;SDS011;1949;48.152;11.528;2022-08-20T15:28:47;1.40;;;1.30;;
3867;SDS011;1949;48.152;11.528;2022-08-20T15:31:13;6.50;;;4.20;;
3867;SDS011;1949;48.152;11.528;2022-08-20T15:33:39;72.47;;;37.53;;
3867;SDS011;1949;48.152;11.528;2022-08-20T15:36:06;29.37;;;9.70;;
3867;SDS011;1949;48.152;11.528;2022-08-20T15:38:35;6.10;;;1.93;;
3867;SDS011;1949;48.152;11.528;2022-08-20T15:41:02;3.23;;;2.63;;